Sun Master — V7VU6 — position and weather

sailwx.info

Track history (hours):
 
Tides and Currents Weather Stations Pressure Air Temp Water Temp Dewpoint Dewpoint Depression Visibility Wind Speed Wind Dir Waves Ship Positions

Sun Master

Last reported at 2017-Aug-21 05:24 UTC. Time now 2017-Sep-19 15:32 UTC.
Position S 32°34' E 152°52'.
Warning: this ship's position is 29 days out of date.

Length 183 m; draft 11.8 m.

Type: Cargo ship. MMSI: 538004216.

Date/timePositionNaut miles runAvg speedWind from/ knotsBaromVisibWave heightAir tempDewpointWater temp
2017-Aug-21 05:24S 32°34' E 152°52'410.7
2017-Aug-21 05:00S 32°38' E 152°49'510.8
2017-Aug-21 04:30S 32°42' E 152°45'610.8
2017-Aug-21 03:59S 32°46' E 152°40'510.9
2017-Aug-21 03:30S 32°50' E 152°36'510.4
2017-Aug-21 03:00S 32°52' E 152°31'510.4
2017-Aug-21 02:30S 32°53' E 152°25'5 9.9
2017-Aug-21 02:00S 32°54' E 152°19'5 9.5
2017-Aug-21 01:30S 32°55' E 152°13'5 9.2
2017-Aug-21 01:00S 32°56' E 152°08'5 9.1
2017-Aug-21 00:30S 32°56' E 152°03'5 9.0
2017-Aug-21 00:00S 32°57' E 151°57'5 9.3
2017-Aug-20 23:30S 32°58' E 151°52'4 8.2
2017-Aug-20 23:00S 32°55' E 151°49'2 4.1
2017-Aug-20 22:30S 32°55' E 151°46'2 3.7
2017-Aug-20 22:00S 32°53' E 151°45'0 0.3
2017-Aug-20 21:28S 32°53' E 151°45'0 0.0
2017-Aug-20 19:52S 32°53' E 151°45'0 0.0
2017-Aug-20 19:28S 32°53' E 151°45'0 0.0
2017-Aug-20 18:28S 32°53' E 151°45'0 0.0
2017-Aug-20 05:55S 32°53' E 151°45'0 0.0
2017-Aug-19 15:52S 32°53' E 151°45'0 0.0
2017-Aug-19 15:28S 32°53' E 151°45'0 0.0
2017-Aug-19 14:55S 32°53' E 151°45'0 0.0
2017-Aug-19 13:58S 32°53' E 151°45'0 0.0
2017-Aug-18 06:49S 32°53' E 151°45'0 0.0
2017-Aug-18 05:34S 32°53' E 151°45'0 0.1
2017-Aug-18 05:28S 32°53' E 151°45'0 0.0
2017-Aug-17 20:55S 32°53' E 151°45'0 0.0
2017-Aug-17 19:58S 32°53' E 151°45'0 0.0
2017-Aug-17 19:28S 32°53' E 151°45'0 0.0
2017-Aug-17 18:58S 32°53' E 151°45'0 0.0
2017-Aug-17 18:28S 32°53' E 151°45'0 0.0
2017-Aug-17 17:55S 32°53' E 151°45'0 0.0
2017-Aug-17 17:25S 32°53' E 151°45'0 0.0
2017-Aug-17 13:31S 32°53' E 151°45'0 0.0
2017-Aug-17 13:07S 32°53' E 151°45'0 0.0
2017-Aug-17 12:58S 32°53' E 151°45'0 0.0
2017-Aug-17 12:22S 32°53' E 151°45'0 0.0
2017-Aug-17 10:28S 32°53' E 151°45'0 0.0
2017-Aug-17 03:19S 32°53' E 151°45'0 0.0
2017-Aug-17 01:52S 32°53' E 151°45'0 0.0
2017-Aug-17 01:16S 32°53' E 151°45'0 0.0
2017-Aug-17 00:58S 32°53' E 151°45'0 0.0
2017-Aug-17 00:16S 32°53' E 151°45'0 0.0
2017-Aug-16 23:58S 32°53' E 151°45'0 0.0
2017-Aug-16 23:28S 32°53' E 151°45'0 0.0
2017-Aug-16 22:58S 32°53' E 151°45'0 0.2
2017-Aug-16 22:30S 32°53' E 151°45'1 2.6
2017-Aug-16 22:00S 32°54' E 151°46'2 4.5
2017-Aug-16 21:29S 32°55' E 151°49'4 9.1
2017-Aug-16 21:00S 32°58' E 151°52'2 4.4
2017-Aug-16 20:30S 33°00' E 151°52'3 5.2
2017-Aug-16 20:00S 33°03' E 151°51'4 6.7
2017-Aug-16 19:22S 33°06' E 151°48'7 7.7
2017-Aug-16 18:31S 33°11' E 151°42'0 4.5
2017-Aug-16 18:30S 33°11' E 151°42'0 0.0
2017-Aug-15 20:31S 33°11' E 151°42'0 0.0
2017-Aug-15 20:19S 33°11' E 151°42'0 0.0
2017-Aug-15 19:58S 33°11' E 151°42'0 0.0
2017-Aug-15 19:28S 33°11' E 151°42'0 0.1
2017-Aug-15 18:58S 33°11' E 151°42'0 0.0
2017-Aug-15 17:25S 33°11' E 151°42'0 0.1
2017-Aug-15 16:58S 33°11' E 151°42'0 0.1
2017-Aug-15 16:07S 33°11' E 151°42'0 0.0
2017-Aug-15 15:43S 33°11' E 151°42'0 0.2
2017-Aug-15 15:25S 33°11' E 151°42'0 0.1
2017-Aug-15 14:49S 33°11' E 151°42'0 0.0
2017-Aug-15 14:22S 33°11' E 151°42'0 0.1
2017-Aug-15 13:43S 33°11' E 151°42'0 0.0
2017-Aug-15 13:28S 33°11' E 151°42'0 0.0
2017-Aug-15 12:52S 33°11' E 151°42'0 0.0
2017-Aug-15 12:25S 33°11' E 151°42'0 0.0
2017-Aug-15 11:58S 33°11' E 151°42'0 0.1
2017-Aug-15 11:28S 33°11' E 151°42'0 0.1
2017-Aug-15 10:58S 33°11' E 151°42'0 0.0
2017-Aug-15 10:28S 33°11' E 151°42'0 0.1
2017-Aug-15 09:58S 33°11' E 151°42'0 0.1
2017-Aug-15 09:28S 33°11' E 151°42'0 0.0
2017-Aug-15 08:58S 33°11' E 151°42'0 0.1
2017-Aug-15 08:25S 33°11' E 151°42'0 0.0
2017-Aug-15 07:58S 33°11' E 151°42'0 0.0
2017-Aug-15 07:22S 33°11' E 151°42'0 0.0
2017-Aug-15 06:58S 33°11' E 151°42'0 0.0
2017-Aug-15 06:28S 33°11' E 151°42'0 0.1
2017-Aug-15 05:55S 33°11' E 151°42'0 0.0
2017-Aug-15 05:28S 33°11' E 151°42'0 0.0
2017-Aug-15 04:58S 33°11' E 151°42'0 0.1
2017-Aug-15 04:28S 33°11' E 151°42'0 0.1
2017-Aug-15 03:58S 33°11' E 151°42'0 0.0
2017-Aug-15 03:19S 33°11' E 151°42'0 0.1
2017-Aug-15 02:58S 33°11' E 151°42'0 0.0
2017-Aug-15 02:28S 33°11' E 151°42'0 0.0
2017-Aug-15 01:58S 33°11' E 151°42'0 0.0
2017-Aug-15 01:28S 33°11' E 151°42'0 0.0
2017-Aug-14 23:46S 33°11' E 151°42'0 0.0
2017-Aug-14 23:28S 33°11' E 151°42'0 0.0
2017-Aug-14 22:58S 33°11' E 151°42'0 0.0
2017-Aug-14 22:28S 33°11' E 151°42'0 0.1
2017-Aug-14 21:55S 33°11' E 151°42'0 0.0
2017-Aug-14 21:25S 33°11' E 151°42'0 0.0
2017-Aug-14 20:55S 33°11' E 151°42'0 0.0
2017-Aug-14 20:22S 33°11' E 151°42'0 0.0
2017-Aug-14 19:58S 33°11' E 151°42'0 0.0
2017-Aug-14 19:28S 33°11' E 151°42'0 0.0
2017-Aug-14 18:55S 33°11' E 151°42'0 0.0
2017-Aug-14 18:25S 33°11' E 151°42'0 0.0
2017-Aug-14 17:52S 33°11' E 151°42'0 0.0
2017-Aug-14 16:28S 33°11' E 151°42'0 0.1
2017-Aug-14 15:58S 33°11' E 151°42'0 0.0
2017-Aug-14 15:22S 33°11' E 151°42'0 0.0
2017-Aug-14 14:55S 33°11' E 151°42'0 0.1
2017-Aug-14 14:13S 33°11' E 151°42'0 0.1
2017-Aug-14 13:49S 33°11' E 151°42'0 0.0
2017-Aug-14 13:25S 33°11' E 151°42'0 0.0
2017-Aug-14 12:55S 33°11' E 151°42'0 0.0
2017-Aug-14 12:28S 33°11' E 151°42'0 0.0
2017-Aug-14 11:58S 33°11' E 151°42'0 0.0
2017-Aug-14 11:16S 33°11' E 151°42'0 0.0
2017-Aug-14 10:46S 33°11' E 151°42'0 0.0
2017-Aug-14 10:28S 33°11' E 151°42'0 0.0
2017-Aug-13 23:58S 33°11' E 151°42'0 0.1
2017-Aug-13 23:25S 33°11' E 151°42'0 0.0
2017-Aug-13 22:58S 33°11' E 151°42'0 0.0
2017-Aug-13 22:25S 33°11' E 151°42'0 0.0
2017-Aug-13 21:58S 33°11' E 151°42'0 0.0
2017-Aug-13 20:25S 33°11' E 151°42'0 0.1
2017-Aug-13 19:31S 33°11' E 151°42'0 0.0
2017-Aug-13 18:34S 33°11' E 151°42'0 0.1
2017-Aug-13 18:28S 33°11' E 151°42'0 0.0
2017-Aug-12 22:16S 33°11' E 151°42'0 0.0
2017-Aug-12 21:52S 33°11' E 151°42'0 0.0
2017-Aug-12 10:19S 33°11' E 151°42'  
Track history (hours):
 
Tides and Currents Weather Stations Pressure Air Temp Water Temp Dewpoint Dewpoint Depression Visibility Wind Speed Wind Dir Waves Ship Positions

Sun Master

Last reported at 2017-Aug-21 05:24 UTC. Time now 2017-Sep-19 15:32 UTC.
Position S 32°34' E 152°52'.
Warning: this ship's position is 29 days out of date.

Length 183 m; draft 11.8 m.

Type: Cargo ship. MMSI: 538004216.

Date/timePositionNaut miles runAvg speedWind from/ knotsBaromVisibWave heightAir tempDewpointWater temp
2017-Aug-21 05:24S 32°34' E 152°52'410.7
2017-Aug-21 05:00S 32°38' E 152°49'510.8
2017-Aug-21 04:30S 32°42' E 152°45'610.8
2017-Aug-21 03:59S 32°46' E 152°40'510.9
2017-Aug-21 03:30S 32°50' E 152°36'510.4
2017-Aug-21 03:00S 32°52' E 152°31'510.4
2017-Aug-21 02:30S 32°53' E 152°25'5 9.9
2017-Aug-21 02:00S 32°54' E 152°19'5 9.5
2017-Aug-21 01:30S 32°55' E 152°13'5 9.2
2017-Aug-21 01:00S 32°56' E 152°08'5 9.1
2017-Aug-21 00:30S 32°56' E 152°03'5 9.0
2017-Aug-21 00:00S 32°57' E 151°57'5 9.3
2017-Aug-20 23:30S 32°58' E 151°52'4 8.2
2017-Aug-20 23:00S 32°55' E 151°49'2 4.1
2017-Aug-20 22:30S 32°55' E 151°46'2 3.7
2017-Aug-20 22:00S 32°53' E 151°45'0 0.3
2017-Aug-20 21:28S 32°53' E 151°45'0 0.0
2017-Aug-20 19:52S 32°53' E 151°45'0 0.0
2017-Aug-20 19:28S 32°53' E 151°45'0 0.0
2017-Aug-20 18:28S 32°53' E 151°45'0 0.0
2017-Aug-20 05:55S 32°53' E 151°45'0 0.0
2017-Aug-19 15:52S 32°53' E 151°45'0 0.0
2017-Aug-19 15:28S 32°53' E 151°45'0 0.0
2017-Aug-19 14:55S 32°53' E 151°45'0 0.0
2017-Aug-19 13:58S 32°53' E 151°45'0 0.0
2017-Aug-18 06:49S 32°53' E 151°45'0 0.0
2017-Aug-18 05:34S 32°53' E 151°45'0 0.1
2017-Aug-18 05:28S 32°53' E 151°45'0 0.0
2017-Aug-17 20:55S 32°53' E 151°45'0 0.0
2017-Aug-17 19:58S 32°53' E 151°45'0 0.0
2017-Aug-17 19:28S 32°53' E 151°45'0 0.0
2017-Aug-17 18:58S 32°53' E 151°45'0 0.0
2017-Aug-17 18:28S 32°53' E 151°45'0 0.0
2017-Aug-17 17:55S 32°53' E 151°45'0 0.0
2017-Aug-17 17:25S 32°53' E 151°45'0 0.0
2017-Aug-17 13:31S 32°53' E 151°45'0 0.0
2017-Aug-17 13:07S 32°53' E 151°45'0 0.0
2017-Aug-17 12:58S 32°53' E 151°45'0 0.0
2017-Aug-17 12:22S 32°53' E 151°45'0 0.0
2017-Aug-17 10:28S 32°53' E 151°45'0 0.0
2017-Aug-17 03:19S 32°53' E 151°45'0 0.0
2017-Aug-17 01:52S 32°53' E 151°45'0 0.0
2017-Aug-17 01:16S 32°53' E 151°45'0 0.0
2017-Aug-17 00:58S 32°53' E 151°45'0 0.0
2017-Aug-17 00:16S 32°53' E 151°45'0 0.0
2017-Aug-16 23:58S 32°53' E 151°45'0 0.0
2017-Aug-16 23:28S 32°53' E 151°45'0 0.0
2017-Aug-16 22:58S 32°53' E 151°45'0 0.2
2017-Aug-16 22:30S 32°53' E 151°45'1 2.6
2017-Aug-16 22:00S 32°54' E 151°46'2 4.5
2017-Aug-16 21:29S 32°55' E 151°49'4 9.1
2017-Aug-16 21:00S 32°58' E 151°52'2 4.4
2017-Aug-16 20:30S 33°00' E 151°52'3 5.2
2017-Aug-16 20:00S 33°03' E 151°51'4 6.7
2017-Aug-16 19:22S 33°06' E 151°48'7 7.7
2017-Aug-16 18:31S 33°11' E 151°42'0 4.5
2017-Aug-16 18:30S 33°11' E 151°42'0 0.0
2017-Aug-15 20:31S 33°11' E 151°42'0 0.0
2017-Aug-15 20:19S 33°11' E 151°42'0 0.0
2017-Aug-15 19:58S 33°11' E 151°42'0 0.0
2017-Aug-15 19:28S 33°11' E 151°42'0 0.1
2017-Aug-15 18:58S 33°11' E 151°42'0 0.0
2017-Aug-15 17:25S 33°11' E 151°42'0 0.1
2017-Aug-15 16:58S 33°11' E 151°42'0 0.1
2017-Aug-15 16:07S 33°11' E 151°42'0 0.0
2017-Aug-15 15:43S 33°11' E 151°42'0 0.2
2017-Aug-15 15:25S 33°11' E 151°42'0 0.1
2017-Aug-15 14:49S 33°11' E 151°42'0 0.0
2017-Aug-15 14:22S 33°11' E 151°42'0 0.1
2017-Aug-15 13:43S 33°11' E 151°42'0 0.0
2017-Aug-15 13:28S 33°11' E 151°42'0 0.0
2017-Aug-15 12:52S 33°11' E 151°42'0 0.0
2017-Aug-15 12:25S 33°11' E 151°42'0 0.0
2017-Aug-15 11:58S 33°11' E 151°42'0 0.1
2017-Aug-15 11:28S 33°11' E 151°42'0 0.1
2017-Aug-15 10:58S 33°11' E 151°42'0 0.0
2017-Aug-15 10:28S 33°11' E 151°42'0 0.1
2017-Aug-15 09:58S 33°11' E 151°42'0 0.1
2017-Aug-15 09:28S 33°11' E 151°42'0 0.0
2017-Aug-15 08:58S 33°11' E 151°42'0 0.1
2017-Aug-15 08:25S 33°11' E 151°42'0 0.0
2017-Aug-15 07:58S 33°11' E 151°42'0 0.0
2017-Aug-15 07:22S 33°11' E 151°42'0 0.0
2017-Aug-15 06:58S 33°11' E 151°42'0 0.0
2017-Aug-15 06:28S 33°11' E 151°42'0 0.1
2017-Aug-15 05:55S 33°11' E 151°42'0 0.0
2017-Aug-15 05:28S 33°11' E 151°42'0 0.0
2017-Aug-15 04:58S 33°11' E 151°42'0 0.1
2017-Aug-15 04:28S 33°11' E 151°42'0 0.1
2017-Aug-15 03:58S 33°11' E 151°42'0 0.0
2017-Aug-15 03:19S 33°11' E 151°42'0 0.1
2017-Aug-15 02:58S 33°11' E 151°42'0 0.0
2017-Aug-15 02:28S 33°11' E 151°42'0 0.0
2017-Aug-15 01:58S 33°11' E 151°42'0 0.0
2017-Aug-15 01:28S 33°11' E 151°42'0 0.0
2017-Aug-14 23:46S 33°11' E 151°42'0 0.0
2017-Aug-14 23:28S 33°11' E 151°42'0 0.0
2017-Aug-14 22:58S 33°11' E 151°42'0 0.0
2017-Aug-14 22:28S 33°11' E 151°42'0 0.1
2017-Aug-14 21:55S 33°11' E 151°42'0 0.0
2017-Aug-14 21:25S 33°11' E 151°42'0 0.0
2017-Aug-14 20:55S 33°11' E 151°42'0 0.0
2017-Aug-14 20:22S 33°11' E 151°42'0 0.0
2017-Aug-14 19:58S 33°11' E 151°42'0 0.0
2017-Aug-14 19:28S 33°11' E 151°42'0 0.0
2017-Aug-14 18:55S 33°11' E 151°42'0 0.0
2017-Aug-14 18:25S 33°11' E 151°42'0 0.0
2017-Aug-14 17:52S 33°11' E 151°42'0 0.0
2017-Aug-14 16:28S 33°11' E 151°42'0 0.1
2017-Aug-14 15:58S 33°11' E 151°42'0 0.0
2017-Aug-14 15:22S 33°11' E 151°42'0 0.0
2017-Aug-14 14:55S 33°11' E 151°42'0 0.1
2017-Aug-14 14:13S 33°11' E 151°42'0 0.1
2017-Aug-14 13:49S 33°11' E 151°42'0 0.0
2017-Aug-14 13:25S 33°11' E 151°42'0 0.0
2017-Aug-14 12:55S 33°11' E 151°42'0 0.0
2017-Aug-14 12:28S 33°11' E 151°42'0 0.0
2017-Aug-14 11:58S 33°11' E 151°42'0 0.0
2017-Aug-14 11:16S 33°11' E 151°42'0 0.0
2017-Aug-14 10:46S 33°11' E 151°42'0 0.0
2017-Aug-14 10:28S 33°11' E 151°42'0 0.0
2017-Aug-13 23:58S 33°11' E 151°42'0 0.1
2017-Aug-13 23:25S 33°11' E 151°42'0 0.0
2017-Aug-13 22:58S 33°11' E 151°42'0 0.0
2017-Aug-13 22:25S 33°11' E 151°42'0 0.0
2017-Aug-13 21:58S 33°11' E 151°42'0 0.0
2017-Aug-13 20:25S 33°11' E 151°42'0 0.1
2017-Aug-13 19:31S 33°11' E 151°42'0 0.0
2017-Aug-13 18:34S 33°11' E 151°42'0 0.1
2017-Aug-13 18:28S 33°11' E 151°42'0 0.0
2017-Aug-12 22:16S 33°11' E 151°42'0 0.0
2017-Aug-12 21:52S 33°11' E 151°42'0 0.0
2017-Aug-12 10:19S 33°11' E 151°42'  

Dump ship's entire track history